createdAt,value
2023-05-06T00:01:56.357Z,12.63
2023-05-06T00:09:16.399Z,10.02
2023-05-06T00:16:34.823Z,9.68
2023-05-06T00:23:53.701Z,14.05
2023-05-06T00:31:14.501Z,10.07
2023-05-06T00:38:33.485Z,7.70
2023-05-06T00:45:53.021Z,9.38
2023-05-06T00:53:13.462Z,7.57
2023-05-06T01:00:31.820Z,6.55
2023-05-06T01:07:55.879Z,10.38
2023-05-06T01:15:17.402Z,11.55
2023-05-06T01:22:38.563Z,10.98
2023-05-06T01:29:59.853Z,8.55
2023-05-06T01:37:23.316Z,7.20
2023-05-06T01:44:41.980Z,7.13
2023-05-06T01:52:06.289Z,7.88
2023-05-06T01:59:24.912Z,9.25
2023-05-06T02:06:43.675Z,9.20
2023-05-06T02:14:06.019Z,7.38
2023-05-06T02:21:25.549Z,9.02
2023-05-06T02:28:44.612Z,6.90
2023-05-06T02:36:07.133Z,12.15
2023-05-06T02:43:26.181Z,12.95
2023-05-06T02:50:45.083Z,10.75
2023-05-06T02:58:04.870Z,6.38
2023-05-06T03:05:23.336Z,8.13
2023-05-06T03:12:42.116Z,8.02
2023-05-06T03:20:02.343Z,7.57
2023-05-06T03:27:22.556Z,9.90
2023-05-06T03:34:45.028Z,11.40
2023-05-06T03:42:10.025Z,7.07
2023-05-06T03:49:29.400Z,8.13
2023-05-06T03:56:47.824Z,8.60
2023-05-06T04:04:09.283Z,8.07
2023-05-06T04:11:29.719Z,10.93
2023-05-06T04:18:51.834Z,8.10
2023-05-06T04:26:12.317Z,7.18
2023-05-06T04:33:33.086Z,13.32
2023-05-06T04:40:55.675Z,11.90
2023-05-06T04:48:16.263Z,10.05
2023-05-06T04:55:35.098Z,12.10
2023-05-06T05:02:54.006Z,6.35
2023-05-06T05:10:14.303Z,6.07
2023-05-06T05:17:33.408Z,10.57
2023-05-06T05:24:53.736Z,11.25
2023-05-06T05:32:13.717Z,7.88
2023-05-06T05:39:33.701Z,7.70
2023-05-06T05:46:52.816Z,6.60
2023-05-06T05:54:15.070Z,8.95
2023-05-06T06:01:34.353Z,7.38
2023-05-06T06:08:54.865Z,8.38
2023-05-06T06:16:15.871Z,7.88
2023-05-06T06:23:35.208Z,10.80
2023-05-06T06:30:58.042Z,12.35
2023-05-06T06:38:18.648Z,14.15
2023-05-06T06:45:37.025Z,8.65
2023-05-06T06:52:55.926Z,11.18
2023-05-06T07:00:16.778Z,17.83
2023-05-06T07:07:35.567Z,17.50
2023-05-06T07:14:54.392Z,11.20
2023-05-06T07:22:14.354Z,11.50
2023-05-06T07:29:33.317Z,9.25
2023-05-06T07:36:52.450Z,16.38
2023-05-06T07:44:13.087Z,10.70
2023-05-06T07:51:31.881Z,17.80
2023-05-06T07:58:50.490Z,16.27
2023-05-06T08:06:10.724Z,13.90
2023-05-06T08:13:29.314Z,20.70
2023-05-06T08:20:47.847Z,15.30
2023-05-06T08:28:07.969Z,13.75
2023-05-06T08:35:26.482Z,13.90
2023-05-06T08:42:47.045Z,17.55
2023-05-06T08:50:07.972Z,18.92
2023-05-06T08:57:26.429Z,20.30
2023-05-06T09:04:44.897Z,19.80
2023-05-06T09:12:06.003Z,19.60
2023-05-06T09:19:25.796Z,18.80
2023-05-06T09:26:47.293Z,25.08
2023-05-06T09:34:08.005Z,24.02
2023-05-06T09:41:27.122Z,19.48
2023-05-06T09:48:46.679Z,20.83
2023-05-06T09:56:07.713Z,14.32
2023-05-06T10:03:26.823Z,16.75
2023-05-06T10:10:47.230Z,18.15
2023-05-06T10:18:07.787Z,17.98
2023-05-06T10:25:32.198Z,20.40
2023-05-06T10:32:52.006Z,17.33
2023-05-06T10:40:13.350Z,19.05
2023-05-06T10:48:08.806Z,15.95
2023-05-06T10:55:30.428Z,18.48
2023-05-06T11:02:56.458Z,15.55
2023-05-06T11:10:15.353Z,16.70
2023-05-06T11:17:35.610Z,13.68
2023-05-06T11:24:53.944Z,18.90
2023-05-06T11:32:23.825Z,16.15
2023-05-06T11:39:50.003Z,15.80
2023-05-06T11:47:09.753Z,13.77
2023-05-06T11:54:28.621Z,16.85
2023-05-06T12:01:49.193Z,19.30
2023-05-06T12:09:09.070Z,14.00
2023-05-06T12:16:27.995Z,14.90
2023-05-06T12:23:54.058Z,12.45
2023-05-06T12:31:23.379Z,10.98
2023-05-06T12:38:52.356Z,17.77
2023-05-06T12:46:13.730Z,18.35
2023-05-06T12:53:34.404Z,15.15
2023-05-06T13:01:16.118Z,12.80
2023-05-06T13:08:35.495Z,15.52
2023-05-06T13:15:54.907Z,13.70
2023-05-06T13:23:15.863Z,13.68
2023-05-06T13:30:37.476Z,15.13
2023-05-06T13:37:56.148Z,13.98
2023-05-06T13:45:16.474Z,21.17
2023-05-06T13:52:35.215Z,22.23
2023-05-06T13:59:53.871Z,21.30
2023-05-06T14:07:14.169Z,23.48
2023-05-06T14:14:32.791Z,24.23
2023-05-06T14:21:52.577Z,22.42
2023-05-06T14:29:12.776Z,17.67
2023-05-06T14:36:31.811Z,18.52
2023-05-06T14:43:51.853Z,17.85
2023-05-06T14:51:12.327Z,19.23
2023-05-06T14:58:30.849Z,19.73
2023-05-06T15:05:50.865Z,23.42
2023-05-06T15:13:11.336Z,18.88
2023-05-06T15:20:30.115Z,15.30
2023-05-06T15:27:48.860Z,16.48
2023-05-06T15:35:10.238Z,20.92
2023-05-06T15:42:29.054Z,20.30
2023-05-06T15:49:54.457Z,24.52
2023-05-06T15:57:16.164Z,18.58
2023-05-06T16:04:35.033Z,16.63
2023-05-06T16:11:55.615Z,16.30
2023-05-06T16:19:39.055Z,16.85
2023-05-06T16:26:59.037Z,18.33
2023-05-06T16:34:19.986Z,13.75
2023-05-06T16:49:04.872Z,11.90
2023-05-06T16:56:44.155Z,11.75
2023-05-06T17:04:05.907Z,11.45
2023-05-06T17:11:26.282Z,10.00
2023-05-06T17:18:45.299Z,8.30
2023-05-06T17:26:09.631Z,8.60
2023-05-06T17:33:30.772Z,10.10
2023-05-06T17:40:49.867Z,6.65
2023-05-06T17:48:08.717Z,7.90
2023-05-06T17:55:30.923Z,8.00
2023-05-06T18:02:49.935Z,13.27
2023-05-06T18:10:10.039Z,10.40
2023-05-06T18:17:30.584Z,9.32
2023-05-06T18:24:54.742Z,8.18
2023-05-06T18:32:15.400Z,9.13
2023-05-06T18:39:41.310Z,10.70
2023-05-06T18:46:59.859Z,12.77
2023-05-06T18:54:18.541Z,11.00
2023-05-06T19:01:38.542Z,11.07
2023-05-06T19:08:57.814Z,10.15
2023-05-06T19:16:16.315Z,9.43
2023-05-06T19:23:36.912Z,18.63
2023-05-06T19:30:56.755Z,10.70
2023-05-06T19:38:15.296Z,11.80
2023-05-06T19:45:35.576Z,14.55
2023-05-06T19:52:54.073Z,11.80
2023-05-06T20:00:14.330Z,12.18
2023-05-06T20:07:48.257Z,11.30
2023-05-06T20:15:10.424Z,26.05
2023-05-06T20:22:53.529Z,8.80
2023-05-06T20:30:16.117Z,10.13
2023-05-06T20:37:36.670Z,12.13
2023-05-06T20:45:10.441Z,9.88
2023-05-06T20:59:50.090Z,9.00
2023-05-06T21:07:12.200Z,10.23
2023-05-06T21:14:33.204Z,11.32
2023-05-06T21:21:52.359Z,14.98
2023-05-06T21:29:13.046Z,12.00
2023-05-06T21:36:32.118Z,11.52
2023-05-06T21:43:50.685Z,11.57
2023-05-06T21:51:10.946Z,10.35
2023-05-06T21:58:29.483Z,9.75
2023-05-06T22:05:48.628Z,8.27
2023-05-06T22:13:09.218Z,10.35
2023-05-06T22:20:29.913Z,9.23
2023-05-06T22:27:57.951Z,9.40
2023-05-06T22:35:20.922Z,7.97
2023-05-06T22:42:40.165Z,7.30
2023-05-06T22:49:58.812Z,11.95
2023-05-06T22:57:19.486Z,7.18
2023-05-06T23:04:38.862Z,9.07
2023-05-06T23:11:57.359Z,8.23
2023-05-06T23:19:17.266Z,7.53
2023-05-06T23:26:36.136Z,6.20
2023-05-06T23:33:55.024Z,6.97
2023-05-06T23:41:15.231Z,9.63
2023-05-06T23:48:33.600Z,7.22
2023-05-06T23:55:51.794Z,8.23
